createdAt,value
2018-09-30T00:00:43.632Z,7.30
2018-09-30T00:03:11.937Z,7.40
2018-09-30T00:05:40.975Z,7.30
2018-09-30T00:08:09.320Z,7.20
2018-09-30T00:10:37.568Z,7.20
2018-09-30T00:13:05.833Z,7.20
2018-09-30T00:15:34.809Z,7.20
2018-09-30T00:18:03.708Z,7.10
2018-09-30T00:20:31.984Z,7.20
2018-09-30T00:23:00.308Z,7.10
2018-09-30T00:25:33.899Z,7.00
2018-09-30T00:28:03.455Z,7.00
2018-09-30T00:30:31.724Z,7.00
2018-09-30T00:33:00.032Z,6.90
2018-09-30T00:35:28.908Z,7.00
2018-09-30T00:37:57.180Z,7.00
2018-09-30T00:40:25.981Z,6.90
2018-09-30T00:42:54.349Z,6.80
2018-09-30T00:45:23.628Z,6.80
2018-09-30T00:47:51.909Z,6.80
2018-09-30T00:50:20.487Z,6.80
2018-09-30T00:52:48.811Z,6.80
2018-09-30T00:55:17.080Z,6.80
2018-09-30T00:57:45.346Z,6.80
2018-09-30T01:00:13.632Z,6.90
2018-09-30T01:02:41.921Z,6.90
2018-09-30T01:05:10.303Z,6.90
2018-09-30T01:07:38.595Z,6.90
2018-09-30T01:10:07.645Z,6.90
2018-09-30T01:12:35.994Z,6.90
2018-09-30T01:15:04.292Z,6.90
2018-09-30T01:17:32.572Z,6.70
2018-09-30T01:20:01.213Z,6.80
2018-09-30T01:22:29.480Z,6.60
2018-09-30T01:24:57.781Z,6.70
2018-09-30T01:27:27.160Z,6.70
2018-09-30T01:29:55.435Z,6.60
2018-09-30T01:32:23.736Z,6.50
2018-09-30T01:34:52.284Z,6.50
2018-09-30T01:37:20.543Z,6.50
2018-09-30T01:39:48.825Z,6.40
2018-09-30T01:42:17.112Z,6.40
2018-09-30T01:44:45.360Z,6.30
2018-09-30T01:47:13.633Z,6.40
2018-09-30T01:49:42.432Z,6.40
2018-09-30T01:52:21.986Z,6.30
2018-09-30T01:54:50.620Z,6.20
2018-09-30T01:57:18.874Z,6.20
2018-09-30T01:59:47.215Z,6.30
2018-09-30T02:02:16.326Z,6.30
2018-09-30T02:04:44.602Z,6.20
2018-09-30T02:07:12.922Z,6.20
2018-09-30T02:09:41.500Z,6.30
2018-09-30T02:12:09.752Z,6.20
2018-09-30T02:14:38.024Z,6.20
2018-09-30T02:17:06.689Z,6.20
2018-09-30T02:19:34.950Z,6.10
2018-09-30T02:22:03.436Z,6.10
2018-09-30T02:24:32.256Z,6.20
2018-09-30T02:27:00.537Z,6.10
2018-09-30T02:29:28.801Z,6.10
2018-09-30T02:31:57.486Z,6.00
2018-09-30T02:34:25.776Z,5.90
2018-09-30T02:36:54.080Z,5.80
2018-09-30T02:39:22.927Z,5.90
2018-09-30T02:41:51.195Z,5.90
2018-09-30T02:44:19.492Z,5.80
2018-09-30T02:46:47.904Z,5.80
2018-09-30T02:49:16.169Z,5.80
2018-09-30T02:51:44.443Z,5.70
2018-09-30T02:54:13.044Z,5.80
2018-09-30T02:56:41.316Z,5.70
2018-09-30T02:59:09.585Z,5.60
2018-09-30T03:01:37.888Z,5.60
2018-09-30T03:04:06.170Z,5.60
2018-09-30T03:06:39.708Z,5.50
2018-09-30T03:09:13.826Z,5.60
2018-09-30T03:11:42.374Z,5.60
2018-09-30T03:14:11.340Z,5.50
2018-09-30T03:16:39.822Z,5.40
2018-09-30T03:19:08.454Z,5.50
2018-09-30T03:21:36.832Z,5.50
2018-09-30T03:24:05.224Z,5.50
2018-09-30T03:26:33.741Z,5.50
2018-09-30T03:29:02.116Z,5.50
2018-09-30T03:31:30.393Z,5.40
2018-09-30T03:33:58.772Z,5.50
2018-09-30T03:36:27.264Z,5.30
2018-09-30T03:38:56.118Z,5.30
2018-09-30T03:41:24.988Z,5.30
2018-09-30T03:43:53.241Z,5.20
2018-09-30T03:46:21.505Z,5.20
2018-09-30T03:48:50.476Z,5.30
2018-09-30T03:51:18.740Z,5.20
2018-09-30T03:53:47.028Z,5.20
2018-09-30T03:56:15.305Z,5.20
2018-09-30T03:58:43.588Z,5.20
2018-09-30T04:01:11.839Z,5.20
2018-09-30T04:03:40.712Z,5.10
2018-09-30T04:06:08.993Z,5.10
2018-09-30T04:08:37.268Z,5.10
2018-09-30T04:11:06.171Z,5.10
2018-09-30T04:13:34.496Z,5.20
2018-09-30T04:16:02.844Z,5.20
2018-09-30T04:18:31.120Z,5.10
2018-09-30T04:20:59.392Z,5.20
2018-09-30T04:23:27.765Z,5.00
2018-09-30T04:25:56.748Z,5.00
2018-09-30T04:28:25.048Z,5.00
2018-09-30T04:30:53.362Z,4.90
2018-09-30T04:33:21.779Z,4.90
2018-09-30T04:35:51.025Z,5.00
2018-09-30T04:38:19.304Z,4.90
2018-09-30T04:40:48.174Z,4.90
2018-09-30T04:43:16.420Z,4.80
2018-09-30T04:45:44.665Z,4.80
2018-09-30T04:48:12.988Z,4.80
2018-09-30T04:50:41.271Z,5.00
2018-09-30T04:53:09.580Z,4.90
2018-09-30T04:55:37.875Z,4.90
2018-09-30T04:58:06.184Z,4.90
2018-09-30T05:00:34.491Z,4.90
2018-09-30T05:03:03.316Z,4.90
2018-09-30T05:05:31.664Z,4.90
2018-09-30T05:08:00.001Z,4.80
2018-09-30T05:10:28.686Z,4.80
2018-09-30T05:12:57.060Z,4.90
2018-09-30T05:15:25.350Z,4.90
2018-09-30T05:17:53.699Z,4.90
2018-09-30T05:20:22.017Z,4.90
2018-09-30T05:22:50.340Z,4.90
2018-09-30T05:25:18.956Z,4.90
2018-09-30T05:27:47.300Z,4.80
2018-09-30T05:30:15.722Z,4.80
2018-09-30T05:32:44.526Z,4.80
2018-09-30T05:35:12.996Z,4.70
2018-09-30T05:37:42.449Z,4.80
2018-09-30T05:40:11.372Z,4.90
2018-09-30T05:42:39.661Z,4.90
2018-09-30T05:45:08.327Z,4.90
2018-09-30T05:47:37.459Z,4.90
2018-09-30T05:50:06.394Z,4.90
2018-09-30T05:52:34.665Z,4.80
2018-09-30T05:55:03.760Z,4.90
2018-09-30T05:57:32.220Z,5.00
2018-09-30T06:00:00.481Z,5.10
2018-09-30T06:02:28.794Z,5.10
2018-09-30T06:04:58.421Z,5.10
2018-09-30T06:07:26.700Z,5.20
2018-09-30T06:09:55.108Z,5.20
2018-09-30T06:12:23.384Z,5.20
2018-09-30T06:14:52.140Z,5.20
2018-09-30T06:17:21.852Z,5.20
2018-09-30T06:19:51.697Z,5.20
2018-09-30T06:22:19.972Z,5.20
2018-09-30T06:24:48.688Z,5.20
2018-09-30T06:27:16.959Z,5.20
2018-09-30T06:29:45.324Z,5.30
2018-09-30T06:32:13.977Z,5.40
2018-09-30T06:34:42.240Z,5.50
2018-09-30T06:37:10.539Z,5.60
2018-09-30T06:39:41.028Z,5.70
2018-09-30T06:42:09.477Z,5.80
2018-09-30T06:44:37.720Z,5.80
2018-09-30T06:47:06.032Z,5.90
2018-09-30T06:49:34.408Z,6.00
2018-09-30T06:52:02.766Z,6.00
2018-09-30T06:54:31.805Z,6.00
2018-09-30T06:57:02.386Z,6.10
2018-09-30T06:59:31.930Z,6.20
2018-09-30T07:02:01.137Z,6.30
2018-09-30T07:04:30.549Z,6.50
2018-09-30T07:07:01.704Z,6.60
2018-09-30T07:09:29.970Z,6.70
2018-09-30T07:11:59.161Z,6.90
2018-09-30T07:14:28.065Z,7.10
2018-09-30T07:16:57.348Z,7.20
2018-09-30T07:19:26.096Z,7.40
2018-09-30T07:21:54.720Z,7.60
2018-09-30T07:24:23.040Z,7.70
2018-09-30T07:26:51.316Z,7.90
2018-09-30T07:29:20.164Z,8.10
2018-09-30T07:31:48.549Z,8.30
2018-09-30T07:34:16.827Z,8.50
2018-09-30T07:36:45.584Z,8.60
2018-09-30T07:39:13.955Z,8.70
2018-09-30T07:41:42.244Z,8.90
2018-09-30T07:44:10.620Z,9.10
2018-09-30T07:46:38.985Z,9.20
2018-09-30T07:49:07.212Z,9.20
2018-09-30T07:51:35.506Z,9.30
2018-09-30T07:54:04.209Z,9.40
2018-09-30T07:56:32.501Z,9.40
2018-09-30T07:59:01.080Z,9.50
2018-09-30T08:01:29.350Z,9.60
2018-09-30T08:03:57.660Z,9.80
2018-09-30T08:06:27.089Z,9.80
2018-09-30T08:08:55.376Z,10.00
2018-09-30T08:11:23.763Z,10.20
2018-09-30T08:13:52.380Z,10.20
2018-09-30T08:16:20.685Z,10.40
2018-09-30T08:18:48.944Z,10.30
2018-09-30T08:21:17.691Z,10.50
2018-09-30T08:23:45.987Z,10.70
2018-09-30T08:26:14.348Z,10.90
2018-09-30T08:28:43.775Z,10.90
2018-09-30T08:31:12.066Z,11.00
2018-09-30T08:33:40.448Z,11.10
2018-09-30T08:36:10.110Z,11.20
2018-09-30T08:38:39.600Z,11.30
2018-09-30T08:41:09.297Z,11.50
2018-09-30T08:43:39.032Z,11.70
2018-09-30T08:46:07.616Z,11.80
2018-09-30T08:48:35.914Z,11.90
2018-09-30T08:51:04.392Z,12.20
2018-09-30T08:53:32.701Z,12.20
2018-09-30T08:56:01.059Z,12.30
2018-09-30T08:58:30.475Z,12.50
2018-09-30T09:00:58.784Z,12.70
2018-09-30T09:03:27.239Z,12.90
2018-09-30T09:05:55.572Z,13.00
2018-09-30T09:08:23.952Z,13.10
2018-09-30T09:10:52.240Z,13.30
2018-09-30T09:13:21.167Z,13.40
2018-09-30T09:15:49.698Z,13.60
2018-09-30T09:18:17.997Z,13.70
2018-09-30T09:20:46.670Z,13.70
2018-09-30T09:23:14.959Z,13.90
2018-09-30T09:25:43.303Z,14.00
2018-09-30T09:28:12.038Z,14.00
2018-09-30T09:30:40.503Z,14.20
2018-09-30T09:33:08.874Z,14.60
2018-09-30T09:35:37.432Z,14.30
2018-09-30T09:38:05.737Z,14.50
2018-09-30T09:40:34.737Z,14.80
2018-09-30T09:43:16.997Z,15.00
2018-09-30T09:45:59.310Z,15.10
2018-09-30T09:48:29.737Z,15.20
2018-09-30T09:50:58.758Z,15.20
2018-09-30T09:53:27.133Z,15.40
2018-09-30T09:55:56.429Z,15.50
2018-09-30T09:58:24.772Z,15.60
2018-09-30T10:00:53.043Z,15.70
2018-09-30T10:03:21.804Z,16.00
2018-09-30T10:05:50.116Z,16.30
2018-09-30T10:08:18.476Z,16.40
2018-09-30T10:10:47.240Z,16.20
2018-09-30T10:13:15.591Z,16.10
2018-09-30T10:15:43.840Z,16.30
2018-09-30T10:18:12.840Z,16.60
2018-09-30T10:20:41.824Z,16.90
2018-09-30T10:23:10.113Z,17.30
2018-09-30T10:25:39.240Z,17.20
2018-09-30T10:28:07.545Z,17.10
2018-09-30T10:30:35.900Z,16.80
2018-09-30T10:33:05.435Z,17.00
2018-09-30T10:35:33.739Z,17.00
2018-09-30T10:38:02.260Z,17.30
2018-09-30T10:40:30.593Z,17.20
2018-09-30T10:42:59.012Z,17.60
2018-09-30T10:45:27.813Z,17.40
2018-09-30T10:47:57.826Z,17.60
2018-09-30T10:50:26.151Z,17.80
2018-09-30T10:52:55.064Z,18.00
2018-09-30T10:55:23.999Z,18.20
2018-09-30T10:57:53.583Z,17.70
2018-09-30T11:00:24.369Z,17.90
2018-09-30T11:02:53.816Z,18.20
2018-09-30T11:05:28.028Z,18.50
2018-09-30T11:07:56.338Z,18.10
2018-09-30T11:10:24.676Z,17.50
2018-09-30T11:12:54.232Z,17.80
2018-09-30T11:15:24.763Z,18.40
2018-09-30T11:17:53.072Z,19.10
2018-09-30T11:23:08.457Z,19.00
2018-09-30T11:25:38.841Z,18.40
2018-09-30T11:28:07.143Z,17.70
2018-09-30T11:30:35.452Z,18.10
2018-09-30T11:33:19.226Z,18.50
2018-09-30T11:35:47.528Z,18.30
2018-09-30T11:38:18.711Z,18.50
2018-09-30T11:40:46.980Z,18.30
2018-09-30T11:43:16.483Z,18.60
2018-09-30T11:45:45.235Z,19.20
2018-09-30T11:48:13.520Z,19.20
2018-09-30T11:50:42.100Z,19.10
2018-09-30T11:53:10.888Z,18.90
2018-09-30T11:55:39.204Z,19.00
2018-09-30T11:58:07.469Z,19.00
2018-09-30T12:00:36.045Z,18.70
2018-09-30T12:03:04.560Z,18.80
2018-09-30T12:05:32.888Z,19.10
2018-09-30T12:08:01.979Z,19.50
2018-09-30T12:10:30.247Z,19.00
2018-09-30T12:12:58.591Z,18.80
2018-09-30T12:15:27.934Z,18.80
2018-09-30T12:17:57.347Z,18.80
2018-09-30T12:20:25.918Z,18.90
2018-09-30T12:22:54.231Z,19.10
2018-09-30T12:25:22.527Z,19.20
2018-09-30T12:27:50.873Z,19.00
2018-09-30T12:30:19.741Z,19.10
2018-09-30T12:32:48.072Z,19.00
2018-09-30T12:35:20.301Z,19.30
2018-09-30T12:37:49.600Z,19.50
2018-09-30T12:40:19.324Z,19.40
2018-09-30T12:42:48.211Z,19.50
2018-09-30T12:45:17.285Z,19.70
2018-09-30T12:47:45.664Z,19.60
2018-09-30T12:50:14.852Z,19.80
2018-09-30T12:52:43.278Z,19.90
2018-09-30T12:55:11.541Z,20.20
2018-09-30T12:57:40.368Z,19.80
2018-09-30T13:00:09.257Z,19.80
2018-09-30T13:02:37.608Z,20.00
2018-09-30T13:05:06.672Z,20.10
2018-09-30T13:07:34.989Z,20.40
2018-09-30T13:10:03.310Z,20.40
2018-09-30T13:12:31.593Z,20.30
2018-09-30T13:14:59.861Z,20.20
2018-09-30T13:17:28.176Z,20.10
2018-09-30T13:19:57.120Z,20.00
2018-09-30T13:22:26.031Z,19.50
2018-09-30T13:24:54.316Z,19.10
2018-09-30T13:27:22.690Z,18.60
2018-09-30T13:29:50.984Z,18.40
2018-09-30T13:32:19.373Z,18.10
2018-09-30T13:34:48.336Z,17.90
2018-09-30T13:37:16.612Z,17.90
2018-09-30T13:39:44.885Z,17.70
2018-09-30T13:42:13.270Z,17.60
2018-09-30T13:44:41.552Z,17.80
2018-09-30T13:47:09.897Z,18.10
2018-09-30T13:49:39.254Z,18.30
2018-09-30T13:52:07.645Z,18.20
2018-09-30T13:54:35.924Z,18.00
2018-09-30T13:57:05.392Z,17.90
2018-09-30T13:59:33.706Z,17.70
2018-09-30T14:02:02.161Z,17.90
2018-09-30T14:04:31.033Z,17.80
2018-09-30T14:06:59.334Z,17.90
2018-09-30T14:09:27.600Z,17.90
2018-09-30T14:11:56.087Z,17.70
2018-09-30T14:14:32.286Z,17.80
2018-09-30T14:18:28.978Z,17.80
2018-09-30T14:24:26.014Z,17.80
2018-09-30T14:27:08.202Z,17.80
2018-09-30T14:29:49.584Z,17.80
2018-09-30T14:32:29.673Z,17.70
2018-09-30T14:34:58.001Z,17.60
2018-09-30T14:37:26.389Z,17.60
2018-09-30T14:39:54.676Z,17.50
2018-09-30T14:42:24.477Z,17.50
2018-09-30T14:44:52.756Z,17.40
2018-09-30T14:47:21.024Z,17.30
2018-09-30T14:49:49.360Z,17.30
2018-09-30T14:52:17.641Z,17.30
2018-09-30T14:54:45.922Z,17.30
2018-09-30T14:57:14.218Z,17.30
2018-09-30T14:59:42.653Z,17.10
2018-09-30T15:02:10.911Z,17.10
2018-09-30T15:04:39.774Z,17.20
2018-09-30T15:07:08.174Z,16.90
2018-09-30T15:09:36.640Z,16.90
2018-09-30T15:12:05.408Z,16.80
2018-09-30T15:14:33.709Z,16.50
2018-09-30T15:17:01.999Z,16.40
2018-09-30T15:19:30.348Z,16.30
2018-09-30T15:21:58.624Z,16.30
2018-09-30T15:24:26.900Z,16.30
2018-09-30T15:26:55.212Z,16.20
2018-09-30T15:29:23.552Z,16.10
2018-09-30T15:31:51.845Z,16.20
2018-09-30T15:34:20.699Z,16.20
2018-09-30T15:36:49.529Z,16.10
2018-09-30T15:39:17.933Z,16.20
2018-09-30T15:41:46.296Z,16.30
2018-09-30T15:44:14.649Z,16.30
2018-09-30T15:46:43.148Z,16.40
2018-09-30T15:49:11.480Z,16.50
2018-09-30T15:51:39.826Z,16.60
2018-09-30T15:54:08.069Z,16.60
2018-09-30T15:56:36.979Z,16.30
2018-09-30T15:59:05.256Z,16.20
2018-09-30T16:01:33.529Z,16.10
2018-09-30T16:04:01.955Z,15.90
2018-09-30T16:06:30.259Z,15.70
2018-09-30T16:08:58.570Z,15.60
2018-09-30T16:11:27.565Z,15.60
2018-09-30T16:13:55.827Z,15.50
2018-09-30T16:16:24.236Z,15.40
2018-09-30T16:18:53.243Z,15.30
2018-09-30T16:21:21.575Z,15.10
2018-09-30T16:23:49.810Z,15.10
2018-09-30T16:26:18.116Z,15.10
2018-09-30T16:28:46.393Z,14.90
2018-09-30T16:31:14.673Z,14.90
2018-09-30T16:33:42.972Z,14.80
2018-09-30T16:36:11.239Z,14.60
2018-09-30T16:38:39.529Z,14.60
2018-09-30T16:41:08.313Z,14.40
2018-09-30T16:43:36.615Z,14.40
2018-09-30T16:46:04.979Z,14.40
2018-09-30T16:48:33.361Z,14.30
2018-09-30T16:51:01.618Z,14.20
2018-09-30T16:53:30.877Z,14.10
2018-09-30T16:55:59.624Z,14.00
2018-09-30T16:58:27.881Z,14.00
2018-09-30T17:00:56.165Z,13.80
2018-09-30T17:03:24.552Z,13.60
2018-09-30T17:05:52.810Z,13.60
2018-09-30T17:08:21.064Z,13.60
2018-09-30T17:10:49.893Z,13.60
2018-09-30T17:13:18.204Z,13.50
2018-09-30T17:15:46.468Z,13.50
2018-09-30T17:18:14.784Z,13.30
2018-09-30T17:20:43.050Z,13.20
2018-09-30T17:23:11.343Z,13.10
2018-09-30T17:25:39.606Z,13.10
2018-09-30T17:28:07.877Z,12.90
2018-09-30T17:30:36.194Z,12.90
2018-09-30T17:33:06.556Z,12.70
2018-09-30T17:35:35.100Z,12.70
2018-09-30T17:38:06.225Z,12.70
2018-09-30T17:40:40.973Z,12.60
2018-09-30T17:43:24.748Z,12.50
2018-09-30T17:45:53.083Z,12.50
2018-09-30T17:48:21.830Z,12.40
2018-09-30T17:50:50.118Z,12.40
2018-09-30T17:53:18.422Z,12.30
2018-09-30T17:55:46.702Z,12.30
2018-09-30T17:58:14.980Z,12.30
2018-09-30T18:00:43.372Z,12.20
2018-09-30T18:03:11.964Z,12.10
2018-09-30T18:05:40.400Z,12.10
2018-09-30T18:08:08.704Z,12.00
2018-09-30T18:10:37.727Z,12.00
2018-09-30T18:13:06.048Z,11.90
2018-09-30T18:15:34.348Z,11.90
2018-09-30T18:18:02.764Z,11.80
2018-09-30T18:20:31.089Z,11.90
2018-09-30T18:22:59.386Z,12.00
2018-09-30T18:25:28.182Z,12.00
2018-09-30T18:27:57.036Z,12.10
2018-09-30T18:30:26.957Z,12.10
2018-09-30T18:32:55.862Z,12.20
2018-09-30T18:35:25.201Z,12.30
2018-09-30T18:37:56.292Z,12.30
2018-09-30T18:40:24.796Z,12.30
2018-09-30T18:42:53.058Z,12.30
2018-09-30T18:45:21.408Z,12.30
2018-09-30T18:47:49.822Z,12.40
2018-09-30T18:50:18.194Z,12.40
2018-09-30T18:52:47.239Z,12.40
2018-09-30T18:55:15.516Z,12.30
2018-09-30T18:57:43.809Z,12.40
2018-09-30T19:00:12.456Z,12.40
2018-09-30T19:02:40.729Z,12.50
2018-09-30T19:05:09.038Z,12.50
2018-09-30T19:07:37.933Z,12.50
2018-09-30T19:10:06.240Z,12.50
2018-09-30T19:12:34.516Z,12.60
2018-09-30T19:15:02.942Z,12.60
2018-09-30T19:17:31.268Z,12.50
2018-09-30T19:19:59.557Z,12.50
2018-09-30T19:22:28.407Z,12.40
2018-09-30T19:24:56.746Z,12.40
2018-09-30T19:27:25.755Z,12.40
2018-09-30T19:29:54.266Z,12.40
2018-09-30T19:32:22.648Z,12.40
2018-09-30T19:34:51.056Z,12.30
2018-09-30T19:37:19.560Z,12.30
2018-09-30T19:39:47.932Z,12.40
2018-09-30T19:42:16.246Z,12.40
2018-09-30T19:44:45.188Z,12.40
2018-09-30T19:47:13.649Z,12.40
2018-09-30T19:49:42.036Z,12.40
2018-09-30T19:52:10.548Z,12.40
2018-09-30T19:54:39.249Z,12.40
2018-09-30T19:57:07.684Z,12.40
2018-09-30T19:59:36.159Z,12.50
2018-09-30T20:02:04.765Z,12.40
2018-09-30T20:04:34.056Z,12.40
2018-09-30T20:07:02.549Z,12.30
2018-09-30T20:09:30.848Z,12.30
2018-09-30T20:11:59.119Z,12.30
2018-09-30T20:14:28.473Z,12.40
2018-09-30T20:16:56.764Z,12.40
2018-09-30T20:19:25.539Z,12.40
2018-09-30T20:21:54.484Z,12.40
2018-09-30T20:24:22.884Z,12.40
2018-09-30T20:26:51.200Z,12.40
2018-09-30T20:29:19.768Z,12.40
2018-09-30T20:31:48.064Z,12.50
2018-09-30T20:34:16.338Z,12.50
2018-09-30T20:36:44.642Z,12.60
2018-09-30T20:39:12.917Z,12.50
2018-09-30T20:41:41.212Z,12.60
2018-09-30T20:44:09.496Z,12.60
2018-09-30T20:46:37.783Z,12.50
2018-09-30T20:49:06.206Z,12.40
2018-09-30T20:51:34.517Z,12.20
2018-09-30T20:54:04.119Z,12.20
2018-09-30T20:56:32.396Z,12.10
2018-09-30T20:59:01.032Z,12.00
2018-09-30T21:01:29.312Z,12.00
2018-09-30T21:03:58.164Z,12.00
2018-09-30T21:06:34.474Z,11.90
2018-09-30T21:09:02.902Z,11.80
2018-09-30T21:11:31.201Z,11.80
2018-09-30T21:13:59.776Z,11.80
2018-09-30T21:16:28.085Z,11.70
2018-09-30T21:18:56.361Z,11.70
2018-09-30T21:21:24.776Z,11.60
2018-09-30T21:23:53.048Z,11.70
2018-09-30T21:26:21.381Z,11.60
2018-09-30T21:28:49.912Z,11.60
2018-09-30T21:31:18.245Z,11.40
2018-09-30T21:33:46.538Z,11.40
2018-09-30T21:36:16.096Z,11.40
2018-09-30T21:38:44.380Z,11.50
2018-09-30T21:41:12.702Z,11.40
2018-09-30T21:43:41.004Z,11.40
2018-09-30T21:46:10.284Z,11.40
2018-09-30T21:48:38.613Z,11.30
2018-09-30T21:51:06.909Z,11.30
2018-09-30T21:53:35.308Z,11.30
2018-09-30T21:56:04.138Z,11.30
2018-09-30T21:58:32.416Z,11.30
2018-09-30T22:01:03.000Z,11.30
2018-09-30T22:03:31.548Z,11.40
2018-09-30T22:06:00.225Z,11.30
2018-09-30T22:08:28.510Z,11.20
2018-09-30T22:10:56.813Z,11.20
2018-09-30T22:13:25.980Z,11.20
2018-09-30T22:15:54.332Z,11.30
2018-09-30T22:18:22.608Z,11.30
2018-09-30T22:20:51.691Z,11.30
2018-09-30T22:23:19.964Z,11.20
2018-09-30T22:25:48.248Z,11.20
2018-09-30T22:28:17.125Z,11.20
2018-09-30T22:30:45.420Z,11.20
2018-09-30T22:33:13.728Z,11.20
2018-09-30T22:35:42.316Z,11.20
2018-09-30T22:38:10.604Z,11.10
2018-09-30T22:40:38.897Z,11.10
2018-09-30T22:43:08.028Z,11.10
2018-09-30T22:45:36.304Z,11.10
2018-09-30T22:48:04.595Z,11.10
2018-09-30T22:50:33.158Z,11.10
2018-09-30T22:53:01.696Z,11.10
2018-09-30T22:55:29.956Z,11.10
2018-09-30T22:57:59.603Z,11.10
2018-09-30T23:00:27.939Z,11.00
2018-09-30T23:02:56.264Z,10.90
2018-09-30T23:05:24.709Z,10.80
2018-09-30T23:07:53.001Z,10.80
2018-09-30T23:10:21.285Z,10.70
2018-09-30T23:12:49.944Z,10.60
2018-09-30T23:15:18.263Z,10.70
2018-09-30T23:17:46.831Z,10.60
2018-09-30T23:20:15.558Z,10.60
2018-09-30T23:22:44.132Z,10.60
2018-09-30T23:25:12.405Z,10.60
2018-09-30T23:27:40.801Z,10.60
2018-09-30T23:30:09.710Z,10.60
2018-09-30T23:32:38.515Z,10.50
2018-09-30T23:35:06.869Z,10.40
2018-09-30T23:37:35.145Z,10.50
2018-09-30T23:40:03.556Z,10.50
2018-09-30T23:42:31.865Z,10.40
2018-09-30T23:45:00.200Z,10.40
2018-09-30T23:47:28.475Z,10.40
2018-09-30T23:49:57.112Z,10.50
2018-09-30T23:52:26.420Z,10.50
2018-09-30T23:54:54.684Z,10.50
2018-09-30T23:57:23.112Z,10.50
2018-09-30T23:59:51.493Z,10.50
